sensor_id;sensor_type;location;lat;lon;timestamp;temperature;humidity
14798;DHT22;7490;63.708;20.368;2023-10-31T00:02:09;-6.00;99.90
14798;DHT22;7490;63.708;20.368;2023-10-31T00:04:35;-6.00;99.90
14798;DHT22;7490;63.708;20.368;2023-10-31T00:07:00;-6.00;99.90
14798;DHT22;7490;63.708;20.368;2023-10-31T00:09:26;-6.10;99.90
14798;DHT22;7490;63.708;20.368;2023-10-31T00:11:52;-6.10;99.90
14798;DHT22;7490;63.708;20.368;2023-10-31T00:14:17;-6.10;99.90
14798;DHT22;7490;63.708;20.368;2023-10-31T00:16:43;-6.20;99.90
14798;DHT22;7490;63.708;20.368;2023-10-31T00:19:08;-6.20;99.90
14798;DHT22;7490;63.708;20.368;2023-10-31T00:21:34;-6.30;99.90
14798;DHT22;7490;63.708;20.368;2023-10-31T00:23:59;-6.30;99.90
14798;DHT22;7490;63.708;20.368;2023-10-31T00:26:25;-6.40;99.90
14798;DHT22;7490;63.708;20.368;2023-10-31T00:28:51;-6.40;99.90
14798;DHT22;7490;63.708;20.368;2023-10-31T00:31:17;-6.40;99.90
14798;DHT22;7490;63.708;20.368;2023-10-31T00:33:42;-6.50;99.90
14798;DHT22;7490;63.708;20.368;2023-10-31T00:36:08;-6.50;99.90
14798;DHT22;7490;63.708;20.368;2023-10-31T00:38:34;-6.50;99.90
14798;DHT22;7490;63.708;20.368;2023-10-31T00:40:59;-6.50;99.90
14798;DHT22;7490;63.708;20.368;2023-10-31T00:43:25;-6.50;99.90
14798;DHT22;7490;63.708;20.368;2023-10-31T00:45:51;-6.60;99.90
14798;DHT22;7490;63.708;20.368;2023-10-31T00:48:16;-6.60;99.90
14798;DHT22;7490;63.708;20.368;2023-10-31T00:50:43;-6.60;99.90
14798;DHT22;7490;63.708;20.368;2023-10-31T00:53:09;-6.60;99.90
14798;DHT22;7490;63.708;20.368;2023-10-31T00:55:35;-6.60;99.90
14798;DHT22;7490;63.708;20.368;2023-10-31T00:58:00;-6.60;99.90
14798;DHT22;7490;63.708;20.368;2023-10-31T01:00:26;-6.60;99.90
14798;DHT22;7490;63.708;20.368;2023-10-31T01:02:51;-6.60;99.90
14798;DHT22;7490;63.708;20.368;2023-10-31T01:05:17;-6.60;99.90
14798;DHT22;7490;63.708;20.368;2023-10-31T01:07:43;-6.60;99.90
14798;DHT22;7490;63.708;20.368;2023-10-31T01:10:08;-6.60;99.90
14798;DHT22;7490;63.708;20.368;2023-10-31T01:12:34;-6.60;99.90
14798;DHT22;7490;63.708;20.368;2023-10-31T01:15:00;-6.70;99.90
14798;DHT22;7490;63.708;20.368;2023-10-31T01:17:26;-6.70;99.90
14798;DHT22;7490;63.708;20.368;2023-10-31T01:19:52;-6.70;99.90
14798;DHT22;7490;63.708;20.368;2023-10-31T01:22:17;-6.70;99.90
14798;DHT22;7490;63.708;20.368;2023-10-31T01:24:43;-6.70;99.90
14798;DHT22;7490;63.708;20.368;2023-10-31T01:27:09;-6.80;99.90
14798;DHT22;7490;63.708;20.368;2023-10-31T01:29:34;-6.80;99.90
14798;DHT22;7490;63.708;20.368;2023-10-31T01:32:00;-6.80;99.90
14798;DHT22;7490;63.708;20.368;2023-10-31T01:34:26;-6.80;99.90
14798;DHT22;7490;63.708;20.368;2023-10-31T01:36:51;-6.80;99.90
14798;DHT22;7490;63.708;20.368;2023-10-31T01:39:17;-6.80;99.90
14798;DHT22;7490;63.708;20.368;2023-10-31T01:41:43;-6.80;99.90
14798;DHT22;7490;63.708;20.368;2023-10-31T01:44:10;-6.80;99.90
14798;DHT22;7490;63.708;20.368;2023-10-31T01:46:36;-6.70;99.90
14798;DHT22;7490;63.708;20.368;2023-10-31T01:49:01;-6.70;99.90
14798;DHT22;7490;63.708;20.368;2023-10-31T01:51:28;-6.70;99.90
14798;DHT22;7490;63.708;20.368;2023-10-31T01:53:54;-6.70;99.90
14798;DHT22;7490;63.708;20.368;2023-10-31T01:56:20;-6.70;99.90
14798;DHT22;7490;63.708;20.368;2023-10-31T01:58:47;-6.70;99.90
14798;DHT22;7490;63.708;20.368;2023-10-31T02:01:13;-6.70;99.90
14798;DHT22;7490;63.708;20.368;2023-10-31T02:03:39;-6.70;99.90
14798;DHT22;7490;63.708;20.368;2023-10-31T02:06:05;-6.70;99.90
14798;DHT22;7490;63.708;20.368;2023-10-31T02:08:31;-6.70;99.90
14798;DHT22;7490;63.708;20.368;2023-10-31T02:10:57;-6.70;99.90
14798;DHT22;7490;63.708;20.368;2023-10-31T02:13:22;-6.70;99.90
14798;DHT22;7490;63.708;20.368;2023-10-31T02:15:48;-6.70;99.90
14798;DHT22;7490;63.708;20.368;2023-10-31T02:18:14;-6.70;99.90
14798;DHT22;7490;63.708;20.368;2023-10-31T02:20:40;-6.70;99.90
14798;DHT22;7490;63.708;20.368;2023-10-31T02:23:06;-6.80;99.90
14798;DHT22;7490;63.708;20.368;2023-10-31T02:25:31;-6.80;99.90
14798;DHT22;7490;63.708;20.368;2023-10-31T02:27:57;-6.80;99.90
14798;DHT22;7490;63.708;20.368;2023-10-31T02:30:23;-6.90;99.90
14798;DHT22;7490;63.708;20.368;2023-10-31T02:32:50;-6.90;99.90
14798;DHT22;7490;63.708;20.368;2023-10-31T02:35:17;-6.90;99.90
14798;DHT22;7490;63.708;20.368;2023-10-31T02:37:46;-7.00;99.90
14798;DHT22;7490;63.708;20.368;2023-10-31T02:40:12;-7.00;99.90
14798;DHT22;7490;63.708;20.368;2023-10-31T02:42:38;-7.00;99.90
14798;DHT22;7490;63.708;20.368;2023-10-31T02:45:04;-7.00;99.90
14798;DHT22;7490;63.708;20.368;2023-10-31T02:47:30;-7.00;99.90
14798;DHT22;7490;63.708;20.368;2023-10-31T02:49:55;-7.00;99.90
14798;DHT22;7490;63.708;20.368;2023-10-31T02:52:21;-7.00;99.90
14798;DHT22;7490;63.708;20.368;2023-10-31T02:54:47;-7.00;99.90
14798;DHT22;7490;63.708;20.368;2023-10-31T02:57:12;-7.00;99.90
14798;DHT22;7490;63.708;20.368;2023-10-31T02:59:38;-7.00;99.90
14798;DHT22;7490;63.708;20.368;2023-10-31T03:02:04;-7.00;99.90
14798;DHT22;7490;63.708;20.368;2023-10-31T03:04:30;-7.00;99.90
14798;DHT22;7490;63.708;20.368;2023-10-31T03:06:55;-6.90;99.90
14798;DHT22;7490;63.708;20.368;2023-10-31T03:09:21;-6.90;99.90
14798;DHT22;7490;63.708;20.368;2023-10-31T03:11:46;-6.80;99.90
14798;DHT22;7490;63.708;20.368;2023-10-31T03:14:12;-6.80;99.90
14798;DHT22;7490;63.708;20.368;2023-10-31T03:16:38;-6.80;99.90
14798;DHT22;7490;63.708;20.368;2023-10-31T03:19:04;-6.90;99.90
14798;DHT22;7490;63.708;20.368;2023-10-31T03:21:30;-6.90;99.90
14798;DHT22;7490;63.708;20.368;2023-10-31T03:23:57;-6.90;99.90
14798;DHT22;7490;63.708;20.368;2023-10-31T03:26:23;-6.80;99.90
14798;DHT22;7490;63.708;20.368;2023-10-31T03:28:48;-6.70;99.90
14798;DHT22;7490;63.708;20.368;2023-10-31T03:31:15;-6.70;99.90
14798;DHT22;7490;63.708;20.368;2023-10-31T03:33:41;-6.60;99.90
14798;DHT22;7490;63.708;20.368;2023-10-31T03:36:07;-6.50;99.90
14798;DHT22;7490;63.708;20.368;2023-10-31T03:38:34;-6.30;99.90
14798;DHT22;7490;63.708;20.368;2023-10-31T03:41:00;-6.20;99.90
14798;DHT22;7490;63.708;20.368;2023-10-31T03:43:26;-6.10;99.90
14798;DHT22;7490;63.708;20.368;2023-10-31T03:45:52;-6.10;99.90
14798;DHT22;7490;63.708;20.368;2023-10-31T03:48:18;-6.00;99.90
14798;DHT22;7490;63.708;20.368;2023-10-31T03:50:43;-6.00;99.90
14798;DHT22;7490;63.708;20.368;2023-10-31T03:53:09;-6.00;99.90
14798;DHT22;7490;63.708;20.368;2023-10-31T03:55:35;-6.00;99.90
14798;DHT22;7490;63.708;20.368;2023-10-31T03:58:01;-5.90;99.90
14798;DHT22;7490;63.708;20.368;2023-10-31T04:00:27;-5.90;99.90
14798;DHT22;7490;63.708;20.368;2023-10-31T04:02:52;-5.80;99.90
14798;DHT22;7490;63.708;20.368;2023-10-31T04:05:19;-5.80;99.90
14798;DHT22;7490;63.708;20.368;2023-10-31T04:07:46;-5.70;99.90
14798;DHT22;7490;63.708;20.368;2023-10-31T04:10:12;-5.70;99.90
14798;DHT22;7490;63.708;20.368;2023-10-31T04:12:38;-5.70;99.90
14798;DHT22;7490;63.708;20.368;2023-10-31T04:15:04;-5.60;99.90
14798;DHT22;7490;63.708;20.368;2023-10-31T04:17:30;-5.60;99.90
14798;DHT22;7490;63.708;20.368;2023-10-31T04:19:56;-5.60;99.90
14798;DHT22;7490;63.708;20.368;2023-10-31T04:22:22;-5.50;99.90
14798;DHT22;7490;63.708;20.368;2023-10-31T04:24:47;-5.40;99.90
14798;DHT22;7490;63.708;20.368;2023-10-31T04:27:15;-5.40;99.90
14798;DHT22;7490;63.708;20.368;2023-10-31T04:29:40;-5.30;99.90
14798;DHT22;7490;63.708;20.368;2023-10-31T04:32:06;-5.20;99.90
14798;DHT22;7490;63.708;20.368;2023-10-31T04:34:32;-5.20;99.90
14798;DHT22;7490;63.708;20.368;2023-10-31T04:36:57;-5.20;99.90
14798;DHT22;7490;63.708;20.368;2023-10-31T04:39:23;-5.20;99.90
14798;DHT22;7490;63.708;20.368;2023-10-31T04:41:49;-5.20;99.90
14798;DHT22;7490;63.708;20.368;2023-10-31T04:44:15;-5.20;99.90
14798;DHT22;7490;63.708;20.368;2023-10-31T04:46:42;-5.20;99.90
14798;DHT22;7490;63.708;20.368;2023-10-31T04:49:07;-5.30;99.90
14798;DHT22;7490;63.708;20.368;2023-10-31T04:51:34;-5.30;99.90
14798;DHT22;7490;63.708;20.368;2023-10-31T04:54:00;-5.20;99.90
14798;DHT22;7490;63.708;20.368;2023-10-31T04:56:26;-5.30;99.90
14798;DHT22;7490;63.708;20.368;2023-10-31T04:58:51;-5.30;99.90
14798;DHT22;7490;63.708;20.368;2023-10-31T05:01:17;-5.40;99.90
14798;DHT22;7490;63.708;20.368;2023-10-31T05:03:43;-5.50;99.90
14798;DHT22;7490;63.708;20.368;2023-10-31T05:06:08;-5.60;99.90
14798;DHT22;7490;63.708;20.368;2023-10-31T05:08:34;-5.70;99.90
14798;DHT22;7490;63.708;20.368;2023-10-31T05:11:00;-5.70;99.90
14798;DHT22;7490;63.708;20.368;2023-10-31T05:13:25;-5.80;99.90
14798;DHT22;7490;63.708;20.368;2023-10-31T05:15:51;-5.90;99.90
14798;DHT22;7490;63.708;20.368;2023-10-31T05:18:17;-6.00;99.90
14798;DHT22;7490;63.708;20.368;2023-10-31T05:20:43;-6.00;99.90
14798;DHT22;7490;63.708;20.368;2023-10-31T05:23:09;-6.00;99.90
14798;DHT22;7490;63.708;20.368;2023-10-31T05:25:35;-6.00;99.90
14798;DHT22;7490;63.708;20.368;2023-10-31T05:28:01;-6.00;99.90
14798;DHT22;7490;63.708;20.368;2023-10-31T05:30:27;-5.90;99.90
14798;DHT22;7490;63.708;20.368;2023-10-31T05:32:52;-5.80;99.90
14798;DHT22;7490;63.708;20.368;2023-10-31T05:35:18;-5.70;99.90
14798;DHT22;7490;63.708;20.368;2023-10-31T05:37:46;-5.60;99.90
14798;DHT22;7490;63.708;20.368;2023-10-31T05:40:12;-5.50;99.90
14798;DHT22;7490;63.708;20.368;2023-10-31T05:42:38;-5.40;99.90
14798;DHT22;7490;63.708;20.368;2023-10-31T05:45:04;-5.40;99.90
14798;DHT22;7490;63.708;20.368;2023-10-31T05:47:30;-5.30;99.90
14798;DHT22;7490;63.708;20.368;2023-10-31T05:49:56;-5.30;99.90
14798;DHT22;7490;63.708;20.368;2023-10-31T05:52:23;-5.30;99.90
14798;DHT22;7490;63.708;20.368;2023-10-31T05:54:48;-5.40;99.90
14798;DHT22;7490;63.708;20.368;2023-10-31T05:57:14;-5.30;99.90
14798;DHT22;7490;63.708;20.368;2023-10-31T05:59:40;-5.30;99.90
14798;DHT22;7490;63.708;20.368;2023-10-31T06:02:05;-5.30;99.90
14798;DHT22;7490;63.708;20.368;2023-10-31T06:04:31;-5.30;99.90
14798;DHT22;7490;63.708;20.368;2023-10-31T06:06:56;-5.30;99.90
14798;DHT22;7490;63.708;20.368;2023-10-31T06:09:22;-5.30;99.90
14798;DHT22;7490;63.708;20.368;2023-10-31T06:11:48;-5.30;99.90
14798;DHT22;7490;63.708;20.368;2023-10-31T06:14:13;-5.30;99.90
14798;DHT22;7490;63.708;20.368;2023-10-31T06:16:40;-5.30;99.90
14798;DHT22;7490;63.708;20.368;2023-10-31T06:19:07;-5.30;99.90
14798;DHT22;7490;63.708;20.368;2023-10-31T06:21:32;-5.20;99.90
14798;DHT22;7490;63.708;20.368;2023-10-31T06:23:58;-5.20;99.90
14798;DHT22;7490;63.708;20.368;2023-10-31T06:26:24;-5.20;99.90
14798;DHT22;7490;63.708;20.368;2023-10-31T06:28:49;-5.20;99.90
14798;DHT22;7490;63.708;20.368;2023-10-31T06:31:15;-5.20;99.90
14798;DHT22;7490;63.708;20.368;2023-10-31T06:33:41;-5.10;99.90
14798;DHT22;7490;63.708;20.368;2023-10-31T06:36:07;-5.10;99.90
14798;DHT22;7490;63.708;20.368;2023-10-31T06:38:33;-5.00;99.90
14798;DHT22;7490;63.708;20.368;2023-10-31T06:40:59;-5.10;99.90
14798;DHT22;7490;63.708;20.368;2023-10-31T06:43:25;-5.00;99.90
14798;DHT22;7490;63.708;20.368;2023-10-31T06:45:50;-5.00;99.90
14798;DHT22;7490;63.708;20.368;2023-10-31T06:48:16;-5.10;99.90
14798;DHT22;7490;63.708;20.368;2023-10-31T06:50:41;-5.00;99.90
14798;DHT22;7490;63.708;20.368;2023-10-31T06:53:07;-5.00;99.90
14798;DHT22;7490;63.708;20.368;2023-10-31T06:55:33;-5.00;99.90
14798;DHT22;7490;63.708;20.368;2023-10-31T06:57:59;-4.90;99.90
14798;DHT22;7490;63.708;20.368;2023-10-31T07:00:25;-4.90;99.90
14798;DHT22;7490;63.708;20.368;2023-10-31T07:02:50;-4.80;99.90
14798;DHT22;7490;63.708;20.368;2023-10-31T07:05:16;-4.80;99.90
14798;DHT22;7490;63.708;20.368;2023-10-31T07:07:42;-4.80;99.90
14798;DHT22;7490;63.708;20.368;2023-10-31T07:10:07;-4.80;99.90
14798;DHT22;7490;63.708;20.368;2023-10-31T07:12:33;-4.80;99.90
14798;DHT22;7490;63.708;20.368;2023-10-31T07:14:59;-4.70;99.90
14798;DHT22;7490;63.708;20.368;2023-10-31T07:17:25;-4.70;99.90
14798;DHT22;7490;63.708;20.368;2023-10-31T07:19:51;-4.70;99.90
14798;DHT22;7490;63.708;20.368;2023-10-31T07:22:17;-4.60;99.90
14798;DHT22;7490;63.708;20.368;2023-10-31T07:24:43;-4.60;99.90
14798;DHT22;7490;63.708;20.368;2023-10-31T07:27:09;-4.60;99.90
14798;DHT22;7490;63.708;20.368;2023-10-31T07:29:36;-4.50;99.90
14798;DHT22;7490;63.708;20.368;2023-10-31T07:32:04;-4.40;99.90
14798;DHT22;7490;63.708;20.368;2023-10-31T07:34:29;-4.40;99.90
14798;DHT22;7490;63.708;20.368;2023-10-31T07:36:55;-4.30;99.90
14798;DHT22;7490;63.708;20.368;2023-10-31T07:39:22;-4.30;99.90
14798;DHT22;7490;63.708;20.368;2023-10-31T07:41:48;-4.30;99.90
14798;DHT22;7490;63.708;20.368;2023-10-31T07:44:13;-4.20;99.90
14798;DHT22;7490;63.708;20.368;2023-10-31T07:46:39;-4.20;99.90
14798;DHT22;7490;63.708;20.368;2023-10-31T07:49:05;-4.10;99.90
14798;DHT22;7490;63.708;20.368;2023-10-31T07:51:31;-4.10;99.90
14798;DHT22;7490;63.708;20.368;2023-10-31T07:53:57;-4.00;99.90
14798;DHT22;7490;63.708;20.368;2023-10-31T07:56:23;-3.90;99.90
14798;DHT22;7490;63.708;20.368;2023-10-31T07:58:51;-3.90;99.90
14798;DHT22;7490;63.708;20.368;2023-10-31T08:01:17;-3.80;99.90
14798;DHT22;7490;63.708;20.368;2023-10-31T08:03:43;-3.70;99.90
14798;DHT22;7490;63.708;20.368;2023-10-31T08:06:11;-3.70;99.90
14798;DHT22;7490;63.708;20.368;2023-10-31T08:08:36;-3.70;99.90
14798;DHT22;7490;63.708;20.368;2023-10-31T08:11:02;-3.70;99.90
14798;DHT22;7490;63.708;20.368;2023-10-31T08:13:29;-3.60;99.90
14798;DHT22;7490;63.708;20.368;2023-10-31T08:15:55;-3.50;99.90
14798;DHT22;7490;63.708;20.368;2023-10-31T08:18:22;-3.50;99.90
14798;DHT22;7490;63.708;20.368;2023-10-31T08:20:48;-3.40;99.90
14798;DHT22;7490;63.708;20.368;2023-10-31T08:23:16;-3.40;99.90
14798;DHT22;7490;63.708;20.368;2023-10-31T08:25:42;-3.30;99.90
14798;DHT22;7490;63.708;20.368;2023-10-31T08:28:08;-3.20;99.90
14798;DHT22;7490;63.708;20.368;2023-10-31T08:30:33;-3.10;99.90
14798;DHT22;7490;63.708;20.368;2023-10-31T08:32:59;-3.00;99.90
14798;DHT22;7490;63.708;20.368;2023-10-31T08:35:25;-3.00;99.90
14798;DHT22;7490;63.708;20.368;2023-10-31T08:37:50;-2.90;99.90
14798;DHT22;7490;63.708;20.368;2023-10-31T08:40:16;-3.00;99.90
14798;DHT22;7490;63.708;20.368;2023-10-31T08:42:42;-3.00;99.90
14798;DHT22;7490;63.708;20.368;2023-10-31T08:45:08;-2.90;99.90
14798;DHT22;7490;63.708;20.368;2023-10-31T08:47:34;-2.90;99.90
14798;DHT22;7490;63.708;20.368;2023-10-31T08:50:00;-2.80;99.90
14798;DHT22;7490;63.708;20.368;2023-10-31T08:52:26;-2.70;99.90
14798;DHT22;7490;63.708;20.368;2023-10-31T08:54:51;-2.60;99.90
14798;DHT22;7490;63.708;20.368;2023-10-31T08:57:17;-2.40;99.90
14798;DHT22;7490;63.708;20.368;2023-10-31T08:59:42;-2.30;99.90
14798;DHT22;7490;63.708;20.368;2023-10-31T09:02:09;-2.20;99.90
14798;DHT22;7490;63.708;20.368;2023-10-31T09:04:34;-2.20;99.90
14798;DHT22;7490;63.708;20.368;2023-10-31T09:07:00;-2.20;99.90
14798;DHT22;7490;63.708;20.368;2023-10-31T09:09:26;-2.20;99.90
14798;DHT22;7490;63.708;20.368;2023-10-31T09:11:52;-2.20;99.90
14798;DHT22;7490;63.708;20.368;2023-10-31T09:14:17;-2.20;99.90
14798;DHT22;7490;63.708;20.368;2023-10-31T09:16:43;-2.10;99.90
14798;DHT22;7490;63.708;20.368;2023-10-31T09:19:09;-2.10;99.90
14798;DHT22;7490;63.708;20.368;2023-10-31T09:21:34;-2.00;99.90
14798;DHT22;7490;63.708;20.368;2023-10-31T09:24:02;-1.90;99.90
14798;DHT22;7490;63.708;20.368;2023-10-31T09:26:28;-1.90;99.90
14798;DHT22;7490;63.708;20.368;2023-10-31T09:28:55;-1.70;99.90
14798;DHT22;7490;63.708;20.368;2023-10-31T09:31:20;-1.60;99.90
14798;DHT22;7490;63.708;20.368;2023-10-31T09:33:46;-1.60;99.90
14798;DHT22;7490;63.708;20.368;2023-10-31T09:36:12;-1.60;99.90
14798;DHT22;7490;63.708;20.368;2023-10-31T09:38:39;-1.60;99.90
14798;DHT22;7490;63.708;20.368;2023-10-31T09:41:06;-1.50;99.90
14798;DHT22;7490;63.708;20.368;2023-10-31T09:43:32;-1.50;99.90
14798;DHT22;7490;63.708;20.368;2023-10-31T09:45:58;-1.50;99.90
14798;DHT22;7490;63.708;20.368;2023-10-31T09:48:26;-1.50;99.90
14798;DHT22;7490;63.708;20.368;2023-10-31T09:50:52;-1.50;99.90
14798;DHT22;7490;63.708;20.368;2023-10-31T09:53:19;-1.50;99.90
14798;DHT22;7490;63.708;20.368;2023-10-31T09:55:46;-1.50;99.90
14798;DHT22;7490;63.708;20.368;2023-10-31T09:58:12;-1.40;99.90
14798;DHT22;7490;63.708;20.368;2023-10-31T10:00:38;-1.50;99.90
14798;DHT22;7490;63.708;20.368;2023-10-31T10:03:07;-1.40;99.90
14798;DHT22;7490;63.708;20.368;2023-10-31T10:05:36;-1.50;99.90
14798;DHT22;7490;63.708;20.368;2023-10-31T10:08:07;-1.50;99.90
14798;DHT22;7490;63.708;20.368;2023-10-31T10:10:34;-1.50;99.90
14798;DHT22;7490;63.708;20.368;2023-10-31T10:12:59;-1.40;99.90
14798;DHT22;7490;63.708;20.368;2023-10-31T10:15:28;-1.40;99.90
14798;DHT22;7490;63.708;20.368;2023-10-31T10:17:54;-1.30;99.90
14798;DHT22;7490;63.708;20.368;2023-10-31T10:20:20;-1.30;99.90
14798;DHT22;7490;63.708;20.368;2023-10-31T10:22:46;-1.30;99.90
14798;DHT22;7490;63.708;20.368;2023-10-31T10:25:17;-1.30;99.90
14798;DHT22;7490;63.708;20.368;2023-10-31T10:27:46;-1.30;99.90
14798;DHT22;7490;63.708;20.368;2023-10-31T10:30:13;-1.20;99.90
14798;DHT22;7490;63.708;20.368;2023-10-31T10:32:39;-1.10;99.90
14798;DHT22;7490;63.708;20.368;2023-10-31T10:35:06;-1.10;99.90
14798;DHT22;7490;63.708;20.368;2023-10-31T10:37:31;-1.00;99.90
14798;DHT22;7490;63.708;20.368;2023-10-31T10:39:58;-1.00;99.90
14798;DHT22;7490;63.708;20.368;2023-10-31T10:42:32;-0.90;99.90
14798;DHT22;7490;63.708;20.368;2023-10-31T10:45:04;-0.90;99.90
14798;DHT22;7490;63.708;20.368;2023-10-31T10:47:34;-0.80;99.90
14798;DHT22;7490;63.708;20.368;2023-10-31T10:50:01;-0.80;99.90
14798;DHT22;7490;63.708;20.368;2023-10-31T10:52:36;-0.80;99.90
14798;DHT22;7490;63.708;20.368;2023-10-31T10:55:12;-0.70;99.90
14798;DHT22;7490;63.708;20.368;2023-10-31T10:57:48;-0.70;99.90
14798;DHT22;7490;63.708;20.368;2023-10-31T11:00:16;-0.70;99.90
14798;DHT22;7490;63.708;20.368;2023-10-31T11:02:43;-0.60;99.90
14798;DHT22;7490;63.708;20.368;2023-10-31T11:05:09;-0.60;99.90
14798;DHT22;7490;63.708;20.368;2023-10-31T11:07:37;-0.60;99.90
14798;DHT22;7490;63.708;20.368;2023-10-31T11:10:03;-0.50;99.90
14798;DHT22;7490;63.708;20.368;2023-10-31T11:12:31;-0.50;99.90
14798;DHT22;7490;63.708;20.368;2023-10-31T11:14:58;-0.50;99.90
14798;DHT22;7490;63.708;20.368;2023-10-31T11:17:29;-0.40;99.90
14798;DHT22;7490;63.708;20.368;2023-10-31T11:19:56;-0.30;99.90
14798;DHT22;7490;63.708;20.368;2023-10-31T11:22:22;-0.20;99.90
14798;DHT22;7490;63.708;20.368;2023-10-31T11:24:49;-0.10;99.90
14798;DHT22;7490;63.708;20.368;2023-10-31T11:27:17;-0.20;99.90
14798;DHT22;7490;63.708;20.368;2023-10-31T11:29:43;-0.10;99.90
14798;DHT22;7490;63.708;20.368;2023-10-31T11:32:10;-0.20;99.90
14798;DHT22;7490;63.708;20.368;2023-10-31T11:34:38;-0.20;99.90
14798;DHT22;7490;63.708;20.368;2023-10-31T11:37:25;-0.20;99.90
14798;DHT22;7490;63.708;20.368;2023-10-31T11:42:46;-0.30;99.90
14798;DHT22;7490;63.708;20.368;2023-10-31T11:45:12;-0.40;99.90
14798;DHT22;7490;63.708;20.368;2023-10-31T11:47:48;-0.50;99.90
14798;DHT22;7490;63.708;20.368;2023-10-31T11:50:15;-0.50;99.90
14798;DHT22;7490;63.708;20.368;2023-10-31T11:52:40;-0.60;99.90
14798;DHT22;7490;63.708;20.368;2023-10-31T11:55:10;-0.60;99.90
14798;DHT22;7490;63.708;20.368;2023-10-31T11:57:36;-0.70;99.90
14798;DHT22;7490;63.708;20.368;2023-10-31T12:00:05;-0.80;99.90
14798;DHT22;7490;63.708;20.368;2023-10-31T12:02:32;-0.80;99.90
14798;DHT22;7490;63.708;20.368;2023-10-31T12:05:11;-0.80;99.90
14798;DHT22;7490;63.708;20.368;2023-10-31T12:07:56;-0.80;99.90
14798;DHT22;7490;63.708;20.368;2023-10-31T12:10:29;-0.80;99.90
14798;DHT22;7490;63.708;20.368;2023-10-31T12:12:58;-0.90;99.90
14798;DHT22;7490;63.708;20.368;2023-10-31T12:15:25;-0.90;99.90
14798;DHT22;7490;63.708;20.368;2023-10-31T12:17:51;-0.80;99.90
14798;DHT22;7490;63.708;20.368;2023-10-31T12:20:16;-0.80;99.90
14798;DHT22;7490;63.708;20.368;2023-10-31T12:22:43;-0.70;99.90
14798;DHT22;7490;63.708;20.368;2023-10-31T12:25:10;-0.70;99.90
14798;DHT22;7490;63.708;20.368;2023-10-31T12:27:45;-0.60;99.90
14798;DHT22;7490;63.708;20.368;2023-10-31T12:30:16;-0.50;99.90
14798;DHT22;7490;63.708;20.368;2023-10-31T12:32:42;-0.50;99.90
14798;DHT22;7490;63.708;20.368;2023-10-31T12:35:16;-0.50;99.90
14798;DHT22;7490;63.708;20.368;2023-10-31T12:37:46;-0.50;99.90
14798;DHT22;7490;63.708;20.368;2023-10-31T12:40:17;-0.50;99.90
14798;DHT22;7490;63.708;20.368;2023-10-31T12:42:44;-0.50;99.90
14798;DHT22;7490;63.708;20.368;2023-10-31T12:45:11;-0.60;99.90
14798;DHT22;7490;63.708;20.368;2023-10-31T12:47:37;-0.60;99.90
14798;DHT22;7490;63.708;20.368;2023-10-31T12:50:16;-0.60;99.90
14798;DHT22;7490;63.708;20.368;2023-10-31T12:52:47;-0.70;99.90
14798;DHT22;7490;63.708;20.368;2023-10-31T12:55:20;-0.70;99.90
14798;DHT22;7490;63.708;20.368;2023-10-31T12:57:47;-0.80;99.90
14798;DHT22;7490;63.708;20.368;2023-10-31T13:00:14;-0.80;99.90
14798;DHT22;7490;63.708;20.368;2023-10-31T13:02:42;-0.90;99.90
14798;DHT22;7490;63.708;20.368;2023-10-31T13:05:15;-0.90;99.90
14798;DHT22;7490;63.708;20.368;2023-10-31T13:07:53;-0.90;99.90
14798;DHT22;7490;63.708;20.368;2023-10-31T13:10:24;-1.00;99.90
14798;DHT22;7490;63.708;20.368;2023-10-31T13:12:51;-1.00;99.90
14798;DHT22;7490;63.708;20.368;2023-10-31T13:15:21;-1.10;99.90
14798;DHT22;7490;63.708;20.368;2023-10-31T13:17:51;-1.20;99.90
14798;DHT22;7490;63.708;20.368;2023-10-31T13:20:18;-1.20;99.90
14798;DHT22;7490;63.708;20.368;2023-10-31T13:22:44;-1.30;99.90
14798;DHT22;7490;63.708;20.368;2023-10-31T13:25:12;-1.30;99.90
14798;DHT22;7490;63.708;20.368;2023-10-31T13:27:40;-1.30;99.90
14798;DHT22;7490;63.708;20.368;2023-10-31T13:30:12;-1.30;99.90
14798;DHT22;7490;63.708;20.368;2023-10-31T13:32:39;-1.40;99.90
14798;DHT22;7490;63.708;20.368;2023-10-31T13:35:05;-1.40;99.90
14798;DHT22;7490;63.708;20.368;2023-10-31T13:37:31;-1.50;99.90
14798;DHT22;7490;63.708;20.368;2023-10-31T13:39:57;-1.50;99.90
14798;DHT22;7490;63.708;20.368;2023-10-31T13:42:23;-1.50;99.90
14798;DHT22;7490;63.708;20.368;2023-10-31T13:44:48;-1.50;99.90
14798;DHT22;7490;63.708;20.368;2023-10-31T13:47:14;-1.50;99.90
14798;DHT22;7490;63.708;20.368;2023-10-31T13:49:40;-1.50;99.90
14798;DHT22;7490;63.708;20.368;2023-10-31T13:52:06;-1.50;99.90
14798;DHT22;7490;63.708;20.368;2023-10-31T13:54:34;-1.50;99.90
14798;DHT22;7490;63.708;20.368;2023-10-31T13:57:00;-1.50;99.90
14798;DHT22;7490;63.708;20.368;2023-10-31T13:59:26;-1.50;99.90
14798;DHT22;7490;63.708;20.368;2023-10-31T14:01:52;-1.50;99.90
14798;DHT22;7490;63.708;20.368;2023-10-31T14:04:19;-1.50;99.90
14798;DHT22;7490;63.708;20.368;2023-10-31T14:06:44;-1.60;99.90
14798;DHT22;7490;63.708;20.368;2023-10-31T14:09:11;-1.60;99.90
14798;DHT22;7490;63.708;20.368;2023-10-31T14:11:38;-1.60;99.90
14798;DHT22;7490;63.708;20.368;2023-10-31T14:14:04;-1.60;99.90
14798;DHT22;7490;63.708;20.368;2023-10-31T14:16:35;-1.50;99.90
14798;DHT22;7490;63.708;20.368;2023-10-31T14:19:01;-1.60;99.90
14798;DHT22;7490;63.708;20.368;2023-10-31T14:21:30;-1.60;99.90
14798;DHT22;7490;63.708;20.368;2023-10-31T14:23:56;-1.60;99.90
14798;DHT22;7490;63.708;20.368;2023-10-31T14:26:22;-1.60;99.90
14798;DHT22;7490;63.708;20.368;2023-10-31T14:28:48;-1.60;99.90
14798;DHT22;7490;63.708;20.368;2023-10-31T14:31:14;-1.60;99.90
14798;DHT22;7490;63.708;20.368;2023-10-31T14:33:41;-1.60;99.90
14798;DHT22;7490;63.708;20.368;2023-10-31T14:36:07;-1.60;99.90
14798;DHT22;7490;63.708;20.368;2023-10-31T14:38:35;-1.60;99.90
14798;DHT22;7490;63.708;20.368;2023-10-31T14:41:01;-1.60;99.90
14798;DHT22;7490;63.708;20.368;2023-10-31T14:43:27;-1.60;99.90
14798;DHT22;7490;63.708;20.368;2023-10-31T14:45:53;-1.70;99.90
14798;DHT22;7490;63.708;20.368;2023-10-31T14:48:20;-1.70;99.90
14798;DHT22;7490;63.708;20.368;2023-10-31T14:50:49;-1.60;99.90
14798;DHT22;7490;63.708;20.368;2023-10-31T14:53:15;-1.60;99.90
14798;DHT22;7490;63.708;20.368;2023-10-31T14:55:41;-1.60;99.90
14798;DHT22;7490;63.708;20.368;2023-10-31T14:58:07;-1.60;99.90
14798;DHT22;7490;63.708;20.368;2023-10-31T15:00:34;-1.50;99.90
14798;DHT22;7490;63.708;20.368;2023-10-31T15:03:00;-1.60;99.90
14798;DHT22;7490;63.708;20.368;2023-10-31T15:05:26;-1.70;99.90
14798;DHT22;7490;63.708;20.368;2023-10-31T15:07:51;-1.70;99.90
14798;DHT22;7490;63.708;20.368;2023-10-31T15:10:21;-1.70;99.90
14798;DHT22;7490;63.708;20.368;2023-10-31T15:12:47;-1.70;99.90
14798;DHT22;7490;63.708;20.368;2023-10-31T15:15:17;-1.70;99.90
14798;DHT22;7490;63.708;20.368;2023-10-31T15:17:43;-1.80;99.90
14798;DHT22;7490;63.708;20.368;2023-10-31T15:20:09;-1.80;99.90
14798;DHT22;7490;63.708;20.368;2023-10-31T15:22:39;-1.80;99.90
14798;DHT22;7490;63.708;20.368;2023-10-31T15:25:05;-1.80;99.90
14798;DHT22;7490;63.708;20.368;2023-10-31T15:27:31;-1.90;99.90
14798;DHT22;7490;63.708;20.368;2023-10-31T15:29:57;-1.90;99.90